Delta Virtual Airport Information Service

Bogota El Dorado International Airport

ICAO: SKBO Country: Colombia
Latitude: 4.70306 Longitude: -74.1383
Latest Arrival : JBU1557 (KFLL-SKBO) Latest Departure : JBU1558 (2) (SKBO-KFLL)


WX CaptureLIVE
Data provided by noaa.gov | Fetched at 14:45:52

METAR : SKBO 091900Z 10012KT 9999 VCSH BKN023 18/09 A3035 NOSIG RMK VCSH/N/NE

TAF : SKBO 091630Z 0918/1018 16011KT 9999 SCT020 SCT080 BECMG 1002/1004 VRB02KT PROB40 TEMPO 1005/1009 DZ BKN015 BECMG 1013/1015 15012KT BKN017 TX19/0919Z TN09/1010Z


Runway Data for SKBO
Data provided by openaviationdata.com

Runway ID Mag Var Hdg Length Elevation Surface ILS Freq ILS Id ILS Slope
13L -5 132° 12449 ft 8358 ft Asphalt 109.9 IEDR 3
13R -5 132° 12503 ft 8358 ft Asphalt 110.7 IADO 3
31L -5 312° 12503 ft 8358 ft Asphalt -- -- --
31R -5 312° 12449 ft 8358 ft Asphalt -- -- --

Bogota El Dorado International Airport, Colombia
Use only for reference purposes



Not for navigational purposes.